Huvudsida
METAR-TAF:

METAR-TAF

Flygplatser :

Khorram Abad

Khorramabad, Iran

latitud: 33-26-11N, longitud: 048-17-09E, höjd: 1155 m

Aktuellt väderrapport

Denna rapport gjordes för 3 timmar och 51 minuter sedan, klockan 10:00 UTC
Vind 12 kt från väst
Temperatur 16°C
Fuktighet 82%
Tryck 1015 hPa
Sikt: 9000 m
Spridda moln på en höjd av 3500 ft, Cumulonimbus.
Spridda moln på en höjd av 4000 ft
Mulet på en höjd av 8000 ft
åska, småhagel eller snökorn, regn

METAR: OICK 091000Z 28012KT 9000 TSGSRA SCT035CB SCT040 OVC080 16/13 Q1015

Tid: 18:21 (13:51 UTC)


TAF: saknas

Aktuella väderrapporter och prognoser från 4000 flygplatser (METAR- och TAF-rapporter).

De tillgängliga stationerna syns som gula och röda prickar på kartan.

För musen över prickarna för att se namnen på stationerna.

Klicka sedan för att få väderrapporter och prognoser.

För att ändra kartan: Klicka på de gröna knapparna med ett svart kors på för att zooma in; den gröna knappen med ett streck på för att zooma ut; eller på de gröna pilarna för angränsande kartor.


METAR-TAF: